Erowati — 3FBC9 — position and weather

sailwx.info

Track history (hours):
 
Tides and Currents Weather Stations Pressure Air Temp Water Temp Dewpoint Dewpoint Depression Visibility Wind Speed Wind Dir Waves Ship Positions

Erowati

Last reported at 2017-Nov-02 10:40 UTC. Time now 2017-Nov-24 20:57 UTC.
Position N 33°54' E 134°58'.
Warning: this ship's position is 22 days out of date.

Length 190 m; draft 10.4 m.

Type: Cargo ship. MMSI: 353320000.

Date/timePositionNaut miles runAvg speedWind from/ knotsBaromVisibWave heightAir tempDewpointWater temp
2017-Nov-02 10:40N 33°54' E 134°58'312.6
2017-Nov-02 10:25N 33°58' E 134°58'512.8
2017-Nov-02 10:00N 34°03' E 134°58'612.7
2017-Nov-02 09:30N 34°09' E 134°58'611.1
2017-Nov-02 09:00N 34°15' E 134°58'611.3
2017-Nov-02 08:30N 34°20' E 134°59'712.9
2017-Nov-02 07:58N 34°27' E 135°03'612.7
2017-Nov-02 07:30N 34°32' E 135°06'4 7.7
2017-Nov-02 07:00N 34°35' E 135°04'7 9.3
2017-Nov-02 06:17N 34°36' E 134°56'  
Track history (hours):
 
Tides and Currents Weather Stations Pressure Air Temp Water Temp Dewpoint Dewpoint Depression Visibility Wind Speed Wind Dir Waves Ship Positions

Erowati

Last reported at 2017-Nov-02 10:40 UTC. Time now 2017-Nov-24 20:57 UTC.
Position N 33°54' E 134°58'.
Warning: this ship's position is 22 days out of date.

Length 190 m; draft 10.4 m.

Type: Cargo ship. MMSI: 353320000.

Date/timePositionNaut miles runAvg speedWind from/ knotsBaromVisibWave heightAir tempDewpointWater temp
2017-Nov-02 10:40N 33°54' E 134°58'312.6
2017-Nov-02 10:25N 33°58' E 134°58'512.8
2017-Nov-02 10:00N 34°03' E 134°58'612.7
2017-Nov-02 09:30N 34°09' E 134°58'611.1
2017-Nov-02 09:00N 34°15' E 134°58'611.3
2017-Nov-02 08:30N 34°20' E 134°59'712.9
2017-Nov-02 07:58N 34°27' E 135°03'612.7
2017-Nov-02 07:30N 34°32' E 135°06'4 7.7
2017-Nov-02 07:00N 34°35' E 135°04'7 9.3
2017-Nov-02 06:17N 34°36' E 134°56'  

Dump ship's entire track history